createdAt,value
2018-09-20T00:01:25.290Z,22.70
2018-09-20T00:03:53.401Z,22.70
2018-09-20T00:06:21.324Z,22.70
2018-09-20T00:08:49.263Z,22.70
2018-09-20T00:11:17.388Z,22.70
2018-09-20T00:13:45.317Z,22.70
2018-09-20T00:16:13.279Z,22.70
2018-09-20T00:18:41.430Z,22.60
2018-09-20T00:21:09.366Z,22.60
2018-09-20T00:23:37.288Z,22.60
2018-09-20T00:26:05.788Z,22.60
2018-09-20T00:28:33.727Z,22.60
2018-09-20T00:31:01.646Z,22.60
2018-09-20T00:33:29.831Z,22.60
2018-09-20T00:35:57.752Z,22.60
2018-09-20T00:38:25.682Z,22.60
2018-09-20T00:40:53.791Z,22.60
2018-09-20T00:43:21.726Z,22.60
2018-09-20T00:45:49.878Z,22.60
2018-09-20T00:48:18.614Z,22.50
2018-09-20T00:50:46.560Z,22.60
2018-09-20T00:53:14.528Z,22.50
2018-09-20T00:55:42.471Z,22.50
2018-09-20T00:58:10.422Z,22.50
2018-09-20T01:00:38.369Z,22.50
2018-09-20T01:03:06.339Z,22.50
2018-09-20T01:06:03.918Z,22.50
2018-09-20T01:08:32.084Z,22.50
2018-09-20T01:11:00.025Z,22.50
2018-09-20T01:13:27.976Z,22.50
2018-09-20T01:15:56.196Z,22.50
2018-09-20T01:18:24.713Z,22.40
2018-09-20T01:20:52.943Z,22.40
2018-09-20T01:23:20.975Z,22.40
2018-09-20T01:25:48.945Z,22.40
2018-09-20T01:28:16.900Z,22.30
2018-09-20T01:30:44.913Z,22.30
2018-09-20T01:33:12.899Z,22.30
2018-09-20T01:35:40.982Z,22.30
2018-09-20T01:38:09.058Z,22.30
2018-09-20T01:40:37.011Z,22.20
2018-09-20T01:43:04.994Z,22.30
2018-09-20T01:45:35.939Z,22.20
2018-09-20T01:48:04.004Z,22.20
2018-09-20T01:50:32.265Z,22.20
2018-09-20T01:53:00.760Z,22.20
2018-09-20T01:55:28.734Z,22.30
2018-09-20T01:57:56.659Z,22.30
2018-09-20T02:00:24.882Z,22.30
2018-09-20T02:02:52.940Z,22.30
2018-09-20T02:05:20.915Z,22.30
2018-09-20T02:07:49.183Z,22.30
2018-09-20T02:10:17.263Z,22.20
2018-09-20T02:12:45.184Z,22.20
2018-09-20T02:15:13.405Z,22.20
2018-09-20T02:17:41.332Z,22.20
2018-09-20T02:20:09.431Z,22.20
2018-09-20T02:22:37.731Z,22.20
2018-09-20T02:25:06.008Z,22.20
2018-09-20T02:27:33.951Z,22.20
2018-09-20T02:30:02.251Z,22.20
2018-09-20T02:32:30.321Z,22.20
2018-09-20T02:34:58.314Z,22.20
2018-09-20T02:37:26.359Z,22.20
2018-09-20T02:39:54.309Z,22.20
2018-09-20T02:42:22.303Z,22.20
2018-09-20T02:44:50.586Z,22.20
2018-09-20T02:47:18.662Z,22.20
2018-09-20T02:49:46.832Z,22.20
2018-09-20T02:52:15.098Z,22.10
2018-09-20T02:54:43.170Z,22.10
2018-09-20T02:57:11.117Z,22.10
2018-09-20T02:59:39.450Z,22.10
2018-09-20T03:02:07.575Z,22.10
2018-09-20T03:04:35.681Z,22.10
2018-09-20T03:07:03.836Z,22.10
2018-09-20T03:09:31.807Z,22.10
2018-09-20T03:11:59.777Z,22.10
2018-09-20T03:14:27.954Z,22.00
2018-09-20T03:16:56.908Z,22.00
2018-09-20T03:19:24.928Z,22.00
2018-09-20T03:21:53.096Z,22.00
2018-09-20T03:24:21.110Z,22.00
2018-09-20T03:26:49.056Z,22.00
2018-09-20T03:29:17.325Z,22.00
2018-09-20T03:31:45.311Z,21.90
2018-09-20T03:34:13.260Z,22.00
2018-09-20T03:36:41.429Z,21.90
2018-09-20T03:39:10.625Z,21.90
2018-09-20T03:41:38.780Z,21.90
2018-09-20T03:44:06.964Z,21.90
2018-09-20T03:46:34.949Z,21.90
2018-09-20T03:49:03.403Z,21.80
2018-09-20T03:51:31.431Z,21.80
2018-09-20T03:53:59.483Z,21.80
2018-09-20T03:56:27.446Z,21.80
2018-09-20T03:58:56.500Z,21.80
2018-09-20T04:01:24.445Z,21.70
2018-09-20T04:03:52.747Z,21.70
2018-09-20T04:06:20.697Z,21.70
2018-09-20T04:08:48.657Z,21.60
2018-09-20T04:11:16.690Z,21.70
2018-09-20T04:13:44.771Z,21.60
2018-09-20T04:16:12.803Z,21.60
2018-09-20T04:18:41.243Z,21.60
2018-09-20T04:21:09.488Z,21.60
2018-09-20T04:23:37.436Z,21.50
2018-09-20T04:26:05.530Z,21.40
2018-09-20T04:28:33.595Z,21.50
2018-09-20T04:31:01.585Z,21.40
2018-09-20T04:33:32.503Z,21.40
2018-09-20T04:36:00.482Z,21.40
2018-09-20T04:38:28.491Z,21.40
2018-09-20T04:40:56.521Z,21.40
2018-09-20T04:43:24.455Z,21.40
2018-09-20T04:45:52.473Z,21.40
2018-09-20T04:48:20.740Z,21.30
2018-09-20T04:50:48.711Z,21.30
2018-09-20T04:53:16.768Z,21.20
2018-09-20T04:55:45.088Z,21.20
2018-09-20T04:58:13.007Z,21.30
2018-09-20T05:00:40.953Z,21.20
2018-09-20T05:03:09.108Z,21.20
2018-09-20T05:05:37.031Z,21.20
2018-09-20T05:08:05.210Z,21.30
2018-09-20T05:10:33.403Z,21.20
2018-09-20T05:13:01.503Z,21.20
2018-09-20T05:15:29.432Z,21.20
2018-09-20T05:17:57.414Z,21.30
2018-09-20T05:20:25.475Z,21.30
2018-09-20T05:22:53.432Z,21.20
2018-09-20T05:25:21.487Z,21.30
2018-09-20T05:27:49.479Z,21.30
2018-09-20T05:30:17.566Z,21.20
2018-09-20T05:32:45.845Z,21.20
2018-09-20T05:35:13.803Z,21.20
2018-09-20T05:37:41.874Z,21.20
2018-09-20T05:40:10.357Z,21.20
2018-09-20T05:42:38.814Z,21.20
2018-09-20T05:45:06.901Z,21.30
2018-09-20T05:47:35.293Z,21.30
2018-09-20T05:50:03.280Z,21.30
2018-09-20T05:52:31.911Z,21.30
2018-09-20T05:55:00.936Z,21.30
2018-09-20T05:57:29.155Z,21.30
2018-09-20T05:59:57.072Z,21.30
2018-09-20T06:02:25.660Z,21.40
2018-09-20T06:07:26.944Z,21.40
2018-09-20T06:09:54.923Z,21.50
2018-09-20T06:12:22.883Z,21.50
2018-09-20T06:14:51.150Z,21.50
2018-09-20T06:17:19.112Z,21.50
2018-09-20T06:19:47.046Z,21.60
2018-09-20T06:22:15.267Z,21.60
2018-09-20T06:24:43.212Z,21.60
2018-09-20T06:27:11.396Z,21.60
2018-09-20T06:29:39.551Z,21.70
2018-09-20T06:32:07.556Z,21.70
2018-09-20T06:34:35.525Z,21.70
2018-09-20T06:37:04.308Z,21.70
2018-09-20T06:39:32.367Z,21.80
2018-09-20T06:42:00.350Z,21.80
2018-09-20T06:44:28.626Z,21.80
2018-09-20T06:46:57.212Z,21.80
2018-09-20T06:49:25.308Z,21.80
2018-09-20T06:51:53.672Z,21.80
2018-09-20T06:54:21.618Z,21.80
2018-09-20T06:56:49.715Z,21.80
2018-09-20T06:59:17.880Z,21.80
2018-09-20T07:01:45.835Z,21.90
2018-09-20T07:04:13.828Z,21.90
2018-09-20T07:06:42.051Z,21.90
2018-09-20T07:09:12.027Z,21.90
2018-09-20T07:11:40.147Z,21.90
2018-09-20T07:14:08.763Z,21.90
2018-09-20T07:16:36.743Z,22.00
2018-09-20T07:19:04.896Z,22.00
2018-09-20T07:21:33.303Z,22.00
2018-09-20T07:24:02.450Z,22.10
2018-09-20T07:26:30.669Z,22.10
2018-09-20T07:28:58.861Z,22.10
2018-09-20T07:31:26.819Z,22.10
2018-09-20T07:33:54.999Z,22.10
2018-09-20T07:36:22.956Z,22.10
2018-09-20T07:38:51.175Z,22.10
2018-09-20T07:41:19.317Z,22.20
2018-09-20T07:43:47.495Z,22.20
2018-09-20T07:46:15.564Z,22.20
2018-09-20T07:48:43.840Z,22.20
2018-09-20T07:51:11.798Z,22.30
2018-09-20T07:53:39.780Z,22.30
2018-09-20T07:56:07.753Z,22.30
2018-09-20T07:58:35.712Z,22.30
2018-09-20T08:01:03.685Z,22.30
2018-09-20T08:03:31.701Z,22.40
2018-09-20T08:05:59.666Z,22.40
2018-09-20T08:08:27.611Z,22.40
2018-09-20T08:10:55.647Z,22.40
2018-09-20T08:13:23.645Z,22.30
2018-09-20T08:15:51.584Z,22.30
2018-09-20T08:18:19.572Z,22.40
2018-09-20T08:20:47.538Z,22.40
2018-09-20T08:23:15.614Z,22.40
2018-09-20T08:25:43.579Z,22.50
2018-09-20T08:28:11.621Z,22.50
2018-09-20T08:30:39.597Z,22.50
2018-09-20T08:33:07.804Z,22.60
2018-09-20T08:35:35.776Z,22.60
2018-09-20T08:38:03.913Z,22.60
2018-09-20T08:40:32.124Z,22.60
2018-09-20T08:43:00.093Z,22.70
2018-09-20T08:45:28.285Z,22.70
2018-09-20T08:47:56.385Z,22.70
2018-09-20T08:50:24.339Z,22.70
2018-09-20T08:52:52.699Z,22.70
2018-09-20T08:55:27.515Z,22.70
2018-09-20T08:57:56.494Z,22.80
2018-09-20T09:00:25.076Z,22.80
2018-09-20T09:02:53.077Z,22.90
2018-09-20T09:05:21.362Z,22.90
2018-09-20T09:07:49.359Z,22.90
2018-09-20T09:10:17.537Z,22.90
2018-09-20T09:12:45.765Z,22.90
2018-09-20T09:15:13.714Z,23.00
2018-09-20T09:17:41.705Z,23.00
2018-09-20T09:20:09.678Z,23.10
2018-09-20T09:22:37.650Z,23.10
2018-09-20T09:25:05.589Z,23.10
2018-09-20T09:27:33.535Z,23.20
2018-09-20T09:30:01.557Z,23.30
2018-09-20T09:32:29.486Z,23.30
2018-09-20T09:34:57.550Z,23.30
2018-09-20T09:37:25.664Z,23.40
2018-09-20T09:39:53.640Z,23.40
2018-09-20T09:42:21.579Z,23.40
2018-09-20T09:44:49.792Z,23.40
2018-09-20T09:47:18.061Z,23.40
2018-09-20T09:49:46.067Z,23.50
2018-09-20T09:52:14.045Z,23.50
2018-09-20T09:54:42.304Z,23.50
2018-09-20T09:57:10.285Z,23.60
2018-09-20T09:59:38.404Z,23.60
2018-09-20T10:02:06.658Z,23.60
2018-09-20T10:04:34.693Z,23.60
2018-09-20T10:07:02.934Z,23.60
2018-09-20T10:09:30.838Z,23.60
2018-09-20T10:12:02.467Z,23.60
2018-09-20T10:14:30.501Z,23.70
2018-09-20T10:16:58.502Z,23.70
2018-09-20T10:19:26.675Z,23.70
2018-09-20T10:21:54.625Z,23.70
2018-09-20T10:24:22.614Z,23.70
2018-09-20T10:26:51.104Z,23.80
2018-09-20T10:29:19.031Z,23.80
2018-09-20T10:31:47.007Z,23.80
2018-09-20T10:34:15.219Z,23.80
2018-09-20T10:36:43.148Z,23.80
2018-09-20T10:39:12.888Z,23.90
2018-09-20T10:41:41.372Z,23.80
2018-09-20T10:44:09.552Z,23.90
2018-09-20T10:46:37.507Z,24.00
2018-09-20T10:49:05.793Z,24.00
2018-09-20T10:51:34.069Z,24.00
2018-09-20T10:54:02.135Z,24.00
2018-09-20T10:56:30.315Z,24.00
2018-09-20T10:58:58.594Z,24.00
2018-09-20T11:01:26.577Z,24.00
2018-09-20T11:03:54.745Z,24.00
2018-09-20T11:06:23.009Z,24.10
2018-09-20T11:08:51.196Z,24.10
2018-09-20T11:11:19.274Z,24.10
2018-09-20T11:13:47.746Z,24.10
2018-09-20T11:16:15.788Z,24.20
2018-09-20T11:18:43.703Z,24.20
2018-09-20T11:21:11.932Z,24.20
2018-09-20T11:23:39.941Z,24.20
2018-09-20T11:26:07.904Z,24.30
2018-09-20T11:28:36.080Z,24.30
2018-09-20T11:31:04.019Z,24.30
2018-09-20T11:33:32.009Z,24.30
2018-09-20T11:36:00.135Z,24.30
2018-09-20T11:38:28.111Z,24.30
2018-09-20T11:40:56.056Z,24.40
2018-09-20T11:43:24.515Z,24.40
2018-09-20T11:45:52.478Z,24.40
2018-09-20T11:48:20.987Z,24.50
2018-09-20T11:50:49.237Z,24.40
2018-09-20T11:53:17.202Z,24.50
2018-09-20T11:55:45.167Z,24.50
2018-09-20T11:58:13.361Z,24.50
2018-09-20T12:00:41.329Z,24.60
2018-09-20T12:03:09.321Z,24.60
2018-09-20T12:05:37.463Z,24.60
2018-09-20T12:08:05.629Z,24.60
2018-09-20T12:10:33.617Z,24.60
2018-09-20T12:13:01.555Z,24.70
2018-09-20T12:15:29.684Z,24.70
2018-09-20T12:17:57.616Z,24.70
2018-09-20T12:20:25.573Z,24.80
2018-09-20T12:22:53.896Z,24.80
2018-09-20T12:25:22.047Z,24.80
2018-09-20T12:27:50.013Z,24.90
2018-09-20T12:30:17.950Z,24.90
2018-09-20T12:32:46.052Z,24.90
2018-09-20T12:35:14.022Z,24.90
2018-09-20T12:37:42.083Z,25.00
2018-09-20T12:40:10.065Z,25.00
2018-09-20T12:42:38.922Z,25.00
2018-09-20T12:45:07.129Z,25.10
2018-09-20T12:47:35.306Z,25.10
2018-09-20T12:50:03.347Z,25.20
2018-09-20T12:52:31.274Z,25.20
2018-09-20T12:54:59.639Z,25.20
2018-09-20T12:57:27.572Z,25.20
2018-09-20T12:59:55.657Z,25.30
2018-09-20T13:02:23.880Z,25.30
2018-09-20T13:04:51.934Z,25.20
2018-09-20T13:07:20.139Z,25.20
2018-09-20T13:09:48.543Z,25.20
2018-09-20T13:12:16.733Z,25.20
2018-09-20T13:14:45.134Z,25.20
2018-09-20T13:17:13.307Z,25.20
2018-09-20T13:19:41.261Z,25.20
2018-09-20T13:22:09.349Z,25.20
2018-09-20T13:24:37.632Z,25.30
2018-09-20T13:27:05.652Z,25.30
2018-09-20T13:29:33.592Z,25.30
2018-09-20T13:32:01.771Z,25.40
2018-09-20T13:34:29.728Z,25.30
2018-09-20T13:36:57.657Z,25.30
2018-09-20T13:39:25.853Z,25.30
2018-09-20T13:41:53.805Z,25.30
2018-09-20T13:44:22.712Z,25.30
2018-09-20T13:46:51.085Z,25.40
2018-09-20T13:49:19.136Z,25.40
2018-09-20T13:51:47.067Z,25.50
2018-09-20T13:54:15.311Z,25.60
2018-09-20T13:56:43.251Z,25.60
2018-09-20T13:59:11.194Z,25.60
2018-09-20T14:01:39.539Z,25.60
2018-09-20T14:04:07.495Z,25.70
2018-09-20T14:06:35.467Z,25.70
2018-09-20T14:09:05.036Z,25.70
2018-09-20T14:11:32.974Z,25.70
2018-09-20T14:14:01.275Z,25.70
2018-09-20T14:16:29.181Z,25.70
2018-09-20T14:18:57.186Z,25.70
2018-09-20T14:21:25.120Z,25.80
2018-09-20T14:23:53.346Z,25.80
2018-09-20T14:26:21.394Z,25.80
2018-09-20T14:28:49.359Z,25.80
2018-09-20T14:31:17.520Z,25.90
2018-09-20T14:33:45.489Z,25.80
2018-09-20T14:36:13.487Z,25.90
2018-09-20T14:38:41.479Z,25.90
2018-09-20T14:41:09.975Z,25.90
2018-09-20T14:43:38.135Z,25.90
2018-09-20T14:46:07.037Z,25.90
2018-09-20T14:48:35.114Z,25.90
2018-09-20T14:51:03.426Z,25.90
2018-09-20T14:53:31.388Z,25.90
2018-09-20T14:55:59.563Z,25.90
2018-09-20T14:58:27.506Z,25.90
2018-09-20T15:00:55.448Z,25.90
2018-09-20T15:03:23.690Z,25.90
2018-09-20T15:05:51.663Z,25.90
2018-09-20T15:08:19.651Z,25.90
2018-09-20T15:10:48.020Z,25.80
2018-09-20T15:13:16.313Z,25.90
2018-09-20T15:15:44.262Z,25.80
2018-09-20T15:18:12.525Z,25.90
2018-09-20T15:20:40.519Z,25.90
2018-09-20T15:23:08.454Z,25.80
2018-09-20T15:25:36.793Z,25.80
2018-09-20T15:28:04.822Z,25.80
2018-09-20T15:30:32.762Z,25.80
2018-09-20T15:33:00.723Z,25.80
2018-09-20T15:35:28.792Z,25.90
2018-09-20T15:37:57.071Z,25.90
2018-09-20T15:40:25.033Z,25.90
2018-09-20T15:42:53.006Z,25.90
2018-09-20T15:45:21.321Z,25.90
2018-09-20T15:47:49.736Z,25.90
2018-09-20T15:50:17.676Z,25.90
2018-09-20T15:52:45.846Z,25.90
2018-09-20T15:55:13.880Z,25.90
2018-09-20T15:57:41.985Z,25.90
2018-09-20T16:00:09.961Z,25.90
2018-09-20T16:02:37.922Z,25.90
2018-09-20T16:05:05.901Z,25.90
2018-09-20T16:07:33.868Z,25.90
2018-09-20T16:10:01.826Z,25.80
2018-09-20T16:12:29.784Z,25.90
2018-09-20T16:15:01.276Z,25.80
2018-09-20T16:17:29.216Z,25.80
2018-09-20T16:19:57.165Z,25.80
2018-09-20T16:22:25.384Z,25.80
2018-09-20T16:24:53.673Z,25.70
2018-09-20T16:27:21.686Z,25.70
2018-09-20T16:30:10.099Z,25.70
2018-09-20T16:32:49.307Z,25.70
2018-09-20T16:35:29.556Z,25.70
2018-09-20T16:38:14.805Z,25.60
2018-09-20T16:40:44.578Z,25.60
2018-09-20T16:43:12.615Z,25.60
2018-09-20T16:45:44.181Z,25.50
2018-09-20T16:48:12.162Z,25.50
2018-09-20T16:50:40.198Z,25.40
2018-09-20T16:53:08.228Z,25.40
2018-09-20T16:55:36.132Z,25.40
2018-09-20T16:58:04.431Z,25.40
2018-09-20T17:00:32.384Z,25.40
2018-09-20T17:03:00.366Z,25.30
2018-09-20T17:05:28.441Z,25.30
2018-09-20T17:07:56.424Z,25.30
2018-09-20T17:10:24.421Z,25.30
2018-09-20T17:12:52.380Z,25.20
2018-09-20T17:15:20.436Z,25.20
2018-09-20T17:17:48.535Z,25.20
2018-09-20T17:20:16.536Z,25.20
2018-09-20T17:22:44.492Z,25.20
2018-09-20T17:25:12.448Z,25.10
2018-09-20T17:27:40.432Z,25.10
2018-09-20T17:30:08.463Z,25.10
2018-09-20T17:32:36.395Z,25.10
2018-09-20T17:35:04.433Z,25.10
2018-09-20T17:37:32.976Z,25.10
2018-09-20T17:40:01.359Z,25.10
2018-09-20T17:42:29.676Z,25.00
2018-09-20T17:44:57.663Z,25.00
2018-09-20T17:47:25.687Z,25.00
2018-09-20T17:49:53.724Z,25.00
2018-09-20T17:52:22.859Z,24.90
2018-09-20T17:54:50.951Z,24.90
2018-09-20T17:57:19.282Z,24.90
2018-09-20T17:59:47.252Z,24.90
2018-09-20T18:02:15.258Z,24.90
2018-09-20T18:04:43.290Z,24.90
2018-09-20T18:07:11.262Z,24.90
2018-09-20T18:09:39.231Z,24.90
2018-09-20T18:12:10.283Z,24.80
2018-09-20T18:14:38.222Z,24.80
2018-09-20T18:17:06.184Z,24.80
2018-09-20T18:19:34.234Z,24.80
2018-09-20T18:22:02.223Z,24.70
2018-09-20T18:24:30.190Z,24.70
2018-09-20T18:26:58.117Z,24.70
2018-09-20T18:29:26.774Z,24.60
2018-09-20T18:31:54.750Z,24.60
2018-09-20T18:34:22.844Z,24.60
2018-09-20T18:36:50.755Z,24.60
2018-09-20T18:39:18.720Z,24.60
2018-09-20T18:41:46.701Z,24.60
2018-09-20T18:44:14.710Z,24.60
2018-09-20T18:46:42.743Z,24.50
2018-09-20T18:49:10.742Z,24.50
2018-09-20T18:51:38.692Z,24.40
2018-09-20T18:54:06.693Z,24.40
2018-09-20T18:56:34.659Z,24.40
2018-09-20T18:59:02.942Z,24.30
2018-09-20T19:01:32.928Z,24.30
2018-09-20T19:04:00.978Z,24.30
2018-09-20T19:06:28.912Z,24.30
2018-09-20T19:08:56.964Z,24.30
2018-09-20T19:11:24.993Z,24.20
2018-09-20T19:13:52.953Z,24.20
2018-09-20T19:16:20.979Z,24.20
2018-09-20T19:18:48.939Z,24.20
2018-09-20T19:23:44.744Z,24.10
2018-09-20T19:26:12.857Z,24.10
2018-09-20T19:28:40.892Z,24.10
2018-09-20T19:31:08.871Z,24.10
2018-09-20T19:33:36.906Z,24.00
2018-09-20T19:36:04.939Z,24.00
2018-09-20T19:38:32.877Z,24.00
2018-09-20T19:41:00.975Z,24.00
2018-09-20T19:43:29.003Z,23.90
2018-09-20T19:45:57.017Z,23.90
2018-09-20T19:48:28.213Z,23.80
2018-09-20T19:50:56.166Z,23.80
2018-09-20T19:53:24.131Z,23.80
2018-09-20T19:55:52.061Z,23.70
2018-09-20T19:58:20.039Z,23.70
2018-09-20T20:00:47.994Z,23.70
2018-09-20T20:03:16.135Z,23.70
2018-09-20T20:05:44.164Z,23.60
2018-09-20T20:08:12.533Z,23.60
2018-09-20T20:10:40.650Z,23.60
2018-09-20T20:13:08.627Z,23.50
2018-09-20T20:15:36.684Z,23.50
2018-09-20T20:18:04.725Z,23.40
2018-09-20T20:20:32.899Z,23.40
2018-09-20T20:23:00.868Z,23.40
2018-09-20T20:25:28.835Z,23.30
2018-09-20T20:27:57.004Z,23.30
2018-09-20T20:30:25.052Z,23.30
2018-09-20T20:32:53.057Z,23.30
2018-09-20T20:35:21.124Z,23.20
2018-09-20T20:37:49.148Z,23.20
2018-09-20T20:40:17.101Z,23.20
2018-09-20T20:42:45.069Z,23.20
2018-09-20T20:45:13.042Z,23.20
2018-09-20T20:47:41.041Z,23.10
2018-09-20T20:50:08.985Z,23.10
2018-09-20T20:52:36.948Z,23.10
2018-09-20T20:55:04.979Z,22.90
2018-09-20T20:57:32.955Z,22.90
2018-09-20T21:00:00.945Z,23.00
2018-09-20T21:02:29.069Z,22.90
2018-09-20T21:04:57.072Z,22.90
2018-09-20T21:07:25.092Z,22.90
2018-09-20T21:09:53.104Z,22.90
2018-09-20T21:12:21.280Z,22.90
2018-09-20T21:14:49.273Z,22.80
2018-09-20T21:17:17.476Z,22.80
2018-09-20T21:19:45.501Z,22.80
2018-09-20T21:22:13.467Z,22.80
2018-09-20T21:24:41.553Z,22.80
2018-09-20T21:27:09.513Z,22.70
2018-09-20T21:29:37.523Z,22.70
2018-09-20T21:32:05.550Z,22.60
2018-09-20T21:34:33.487Z,22.60
2018-09-20T21:37:01.419Z,22.60
2018-09-20T21:39:29.398Z,22.50
2018-09-20T21:41:57.364Z,22.40
2018-09-20T21:44:25.402Z,22.40
2018-09-20T21:46:53.433Z,22.40
2018-09-20T21:49:21.449Z,22.40
2018-09-20T21:51:49.417Z,22.40
2018-09-20T21:54:17.492Z,22.40
2018-09-20T21:56:45.428Z,22.30
2018-09-20T21:59:13.366Z,22.30
2018-09-20T22:01:47.230Z,22.30
2018-09-20T22:04:15.199Z,22.30
2018-09-20T22:06:43.167Z,22.30
2018-09-20T22:09:12.470Z,22.20
2018-09-20T22:11:40.935Z,22.20
2018-09-20T22:14:08.941Z,22.10
2018-09-20T22:16:37.516Z,22.10
2018-09-20T22:19:05.686Z,22.10
2018-09-20T22:21:33.967Z,22.10
2018-09-20T22:24:01.932Z,22.10
2018-09-20T22:26:29.863Z,22.00
2018-09-20T22:28:57.839Z,22.10
2018-09-20T22:31:25.848Z,22.00
2018-09-20T22:33:53.799Z,22.10
2018-09-20T22:36:21.767Z,22.10
2018-09-20T22:38:49.759Z,22.10
2018-09-20T22:41:18.123Z,22.00
2018-09-20T22:43:46.302Z,22.00
2018-09-20T22:46:14.371Z,22.00
2018-09-20T22:48:42.442Z,22.00
2018-09-20T22:51:11.028Z,22.00
2018-09-20T22:53:39.379Z,22.00
2018-09-20T22:56:07.467Z,22.00
2018-09-20T22:58:35.661Z,22.00
2018-09-20T23:01:03.632Z,22.00
2018-09-20T23:03:31.695Z,22.00
2018-09-20T23:05:59.883Z,22.00
2018-09-20T23:08:27.914Z,21.90
2018-09-20T23:10:55.851Z,21.90
2018-09-20T23:13:23.892Z,21.90
2018-09-20T23:15:51.855Z,21.80
2018-09-20T23:18:19.857Z,21.80
2018-09-20T23:20:47.843Z,21.80
2018-09-20T23:23:15.864Z,21.70
2018-09-20T23:25:43.835Z,21.80
2018-09-20T23:28:11.802Z,21.80
2018-09-20T23:30:39.751Z,21.80
2018-09-20T23:33:07.774Z,21.80
2018-09-20T23:35:35.816Z,21.80
2018-09-20T23:38:03.792Z,21.80
2018-09-20T23:40:31.746Z,21.80
2018-09-20T23:42:59.787Z,21.80
2018-09-20T23:45:27.796Z,21.80
2018-09-20T23:47:55.871Z,21.80
2018-09-20T23:50:23.939Z,21.80
2018-09-20T23:52:51.883Z,21.70
2018-09-20T23:55:19.832Z,21.70
2018-09-20T23:57:47.847Z,21.70
